createdAt,value
2023-01-31T04:03:16.349Z,100.00
2023-01-31T04:06:27.860Z,100.00
2023-01-31T04:09:39.201Z,100.00
2023-01-31T04:12:48.808Z,100.00
2023-01-31T04:15:58.574Z,100.00
2023-01-31T04:19:09.534Z,100.00
2023-01-31T04:22:19.207Z,100.00
2023-01-31T04:25:31.066Z,100.00
2023-01-31T04:28:42.349Z,100.00
2023-01-31T04:31:52.006Z,100.00
2023-01-31T04:35:03.090Z,100.00
2023-01-31T04:38:12.829Z,100.00
2023-01-31T04:41:22.619Z,100.00
2023-01-31T04:44:32.205Z,100.00
2023-01-31T04:47:41.903Z,100.00
2023-01-31T04:50:52.791Z,100.00
2023-01-31T04:54:02.419Z,100.00
2023-01-31T04:57:11.979Z,100.00
2023-01-31T05:00:22.202Z,100.00
2023-01-31T05:03:31.891Z,100.00
2023-01-31T05:06:43.730Z,100.00
2023-01-31T05:09:53.881Z,100.00
2023-01-31T05:13:03.694Z,100.00
2023-01-31T05:16:13.454Z,100.00
2023-01-31T05:19:23.061Z,100.00
2023-01-31T05:22:35.007Z,100.00
2023-01-31T05:25:44.904Z,100.00
2023-01-31T05:28:54.430Z,100.00
2023-01-31T05:32:04.592Z,100.00
2023-01-31T05:35:14.894Z,100.00
2023-01-31T05:38:26.028Z,100.00
2023-01-31T05:41:37.298Z,100.00
2023-01-31T05:44:46.937Z,100.00
2023-01-31T05:47:56.482Z,100.00
2023-01-31T05:51:06.438Z,100.00
2023-01-31T05:54:17.634Z,100.00
2023-01-31T05:57:27.291Z,100.00
2023-01-31T07:51:48.119Z,100.00
2023-01-31T07:54:58.345Z,100.00
2023-01-31T07:58:07.962Z,100.00
2023-01-31T08:01:34.086Z,100.00
2023-01-31T08:04:43.973Z,100.00
2023-01-31T08:08:10.240Z,100.00
2023-01-31T08:11:20.239Z,100.00
2023-01-31T08:14:30.372Z,100.00
2023-01-31T08:17:40.524Z,100.00
2023-01-31T08:20:50.214Z,100.00
2023-01-31T08:24:02.103Z,100.00
2023-01-31T08:27:14.525Z,100.00
2023-01-31T08:30:24.553Z,100.00
2023-01-31T08:33:34.473Z,100.00
2023-01-31T08:36:44.842Z,100.00
2023-01-31T08:39:55.740Z,100.00
2023-01-31T08:43:07.633Z,100.00
2023-01-31T08:46:17.501Z,100.00
2023-01-31T08:49:27.092Z,100.00
2023-01-31T08:52:36.856Z,100.00
2023-01-31T08:55:47.678Z,100.00
2023-01-31T08:58:58.749Z,100.00
2023-01-31T09:02:10.602Z,100.00
2023-01-31T09:05:20.627Z,100.00
2023-01-31T09:08:31.271Z,100.00
2023-01-31T09:11:42.303Z,100.00
2023-01-31T09:14:52.239Z,100.00
2023-01-31T09:18:02.091Z,100.00
2023-01-31T09:21:14.631Z,100.00
2023-01-31T09:24:24.464Z,100.00
2023-01-31T09:27:36.757Z,100.00
2023-01-31T09:30:46.451Z,100.00
2023-01-31T09:33:56.092Z,100.00
2023-01-31T09:37:05.771Z,100.00
2023-01-31T09:40:24.914Z,100.00
2023-01-31T09:43:41.442Z,100.00
2023-01-31T09:46:56.602Z,100.00
2023-01-31T09:50:15.123Z,100.00
2023-01-31T09:53:30.387Z,100.00
2023-01-31T09:56:44.077Z,100.00
2023-01-31T10:00:03.920Z,100.00
2023-01-31T10:03:31.900Z,100.00
2023-01-31T10:06:46.834Z,100.00
2023-01-31T10:10:01.260Z,100.00
2023-01-31T10:13:22.101Z,100.00
2023-01-31T10:16:37.648Z,100.00
2023-01-31T10:19:52.925Z,100.00
2023-01-31T10:23:08.457Z,100.00
2023-01-31T10:26:23.089Z,100.00
2023-01-31T10:29:37.564Z,100.00
2023-01-31T10:32:53.099Z,100.00
2023-01-31T10:36:06.899Z,100.00
2023-01-31T10:39:23.657Z,100.00
2023-01-31T10:42:37.941Z,100.00
2023-01-31T10:45:47.567Z,100.00
2023-01-31T10:48:58.889Z,100.00
2023-01-31T10:52:26.196Z,100.00
2023-01-31T10:55:51.548Z,100.00
2023-01-31T10:59:03.559Z,100.00
2023-01-31T11:02:20.768Z,100.00
2023-01-31T11:05:32.139Z,100.00
2023-01-31T11:08:48.157Z,100.00
2023-01-31T11:11:59.484Z,100.00
2023-01-31T11:15:16.955Z,100.00
2023-01-31T11:18:30.766Z,100.00
2023-01-31T11:21:41.889Z,100.00
2023-01-31T11:24:52.532Z,100.00
2023-01-31T11:28:04.802Z,100.00
2023-01-31T11:31:22.128Z,100.00
2023-01-31T11:34:34.291Z,100.00
2023-01-31T11:37:54.319Z,100.00
2023-01-31T11:41:28.824Z,100.00
2023-01-31T11:44:38.540Z,97.43
2023-01-31T11:47:51.986Z,95.03
2023-01-31T11:51:03.425Z,93.06
2023-01-31T11:54:21.080Z,91.87
2023-01-31T11:57:34.294Z,92.13
2023-01-31T12:00:54.571Z,92.09
2023-01-31T12:04:06.604Z,92.83
2023-01-31T12:07:23.501Z,91.70
2023-01-31T12:10:41.985Z,90.26
2023-01-31T12:13:53.676Z,89.32
2023-01-31T12:17:03.949Z,87.49
2023-01-31T12:20:28.864Z,88.25
2023-01-31T12:23:47.294Z,87.89
2023-01-31T12:27:12.223Z,88.62
2023-01-31T12:30:38.374Z,90.12
2023-01-31T12:34:07.721Z,92.46
2023-01-31T12:37:28.403Z,93.64
2023-01-31T12:40:44.625Z,94.62
2023-01-31T12:44:17.713Z,94.04
2023-01-31T12:47:44.156Z,94.75
2023-01-31T12:51:03.673Z,94.81
2023-01-31T12:54:26.499Z,94.83
2023-01-31T12:57:41.869Z,94.30
2023-01-31T13:01:00.091Z,92.92
2023-01-31T13:04:28.406Z,93.21
2023-01-31T13:07:43.691Z,91.69
2023-01-31T13:10:59.435Z,91.87
2023-01-31T13:14:16.527Z,91.20
2023-01-31T13:17:29.933Z,90.73
2023-01-31T13:20:44.753Z,89.54
2023-01-31T13:23:59.474Z,89.98
2023-01-31T13:27:18.735Z,89.50
2023-01-31T13:30:36.384Z,89.57
2023-01-31T13:33:51.936Z,89.89
2023-01-31T13:37:05.273Z,89.70
2023-01-31T13:40:20.793Z,90.18
2023-01-31T13:43:30.340Z,89.84
2023-01-31T13:46:52.127Z,91.06
2023-01-31T13:50:08.314Z,92.15
2023-01-31T13:53:23.575Z,90.81
2023-01-31T13:56:36.232Z,91.58
2023-01-31T13:59:54.583Z,91.41
2023-01-31T14:03:07.052Z,91.13
2023-01-31T14:06:18.021Z,91.65
2023-01-31T14:09:29.594Z,92.20
2023-01-31T14:12:40.339Z,92.71
2023-01-31T14:15:52.541Z,92.16
2023-01-31T14:19:02.679Z,92.45
2023-01-31T14:22:19.450Z,93.60
2023-01-31T14:25:42.778Z,94.13
2023-01-31T14:28:52.719Z,96.50
2023-01-31T14:32:16.074Z,97.74
2023-01-31T14:35:42.164Z,98.18
2023-01-31T14:39:17.882Z,99.31
2023-01-31T14:42:46.629Z,100.00
2023-01-31T14:46:10.809Z,99.91
2023-01-31T14:49:46.451Z,100.00
2023-01-31T14:53:11.367Z,100.00
2023-01-31T14:56:40.961Z,100.00
2023-01-31T14:59:58.159Z,100.00
2023-01-31T15:03:13.694Z,100.00
2023-01-31T15:06:27.706Z,100.00
2023-01-31T15:09:40.020Z,100.00
2023-01-31T15:13:00.051Z,100.00
2023-01-31T15:16:17.604Z,100.00
2023-01-31T15:19:31.992Z,100.00
2023-01-31T15:22:43.315Z,100.00
2023-01-31T15:25:55.336Z,100.00
2023-01-31T15:29:06.335Z,100.00
2023-01-31T15:32:33.565Z,100.00
2023-01-31T15:35:51.122Z,100.00
2023-01-31T15:39:07.521Z,100.00
2023-01-31T15:42:24.105Z,100.00
2023-01-31T15:45:36.152Z,100.00
2023-01-31T15:48:45.765Z,100.00
2023-01-31T15:52:13.918Z,100.00
2023-01-31T15:55:25.012Z,100.00
2023-01-31T15:58:36.741Z,100.00
2023-01-31T16:01:50.735Z,100.00
2023-01-31T16:05:00.742Z,100.00
2023-01-31T16:08:22.156Z,100.00
2023-01-31T16:11:34.399Z,100.00
2023-01-31T16:14:47.985Z,100.00
2023-01-31T16:18:03.465Z,100.00
2023-01-31T16:21:16.485Z,100.00
2023-01-31T16:24:28.509Z,100.00
2023-01-31T16:27:39.531Z,100.00
2023-01-31T16:30:49.438Z,100.00
2023-01-31T16:34:04.225Z,100.00
2023-01-31T16:37:14.033Z,100.00
2023-01-31T16:40:28.697Z,100.00
2023-01-31T16:43:38.397Z,100.00
2023-01-31T16:46:49.905Z,100.00
2023-01-31T16:50:41.779Z,100.00
2023-01-31T16:54:16.379Z,100.00
2023-01-31T16:57:38.484Z,100.00
2023-01-31T17:00:49.679Z,100.00
2023-01-31T17:04:04.404Z,100.00
2023-01-31T17:07:19.725Z,100.00
2023-01-31T17:10:31.712Z,100.00
2023-01-31T17:13:41.370Z,100.00
2023-01-31T17:16:52.138Z,100.00
2023-01-31T17:20:01.894Z,100.00
2023-01-31T17:23:13.806Z,100.00
2023-01-31T17:26:24.387Z,100.00
2023-01-31T17:29:34.751Z,100.00
2023-01-31T17:32:44.664Z,100.00
2023-01-31T17:35:57.649Z,100.00
2023-01-31T17:39:08.662Z,100.00
2023-01-31T17:42:19.995Z,100.00
2023-01-31T17:45:29.869Z,100.00
2023-01-31T17:48:39.631Z,100.00
2023-01-31T17:51:49.285Z,100.00
2023-01-31T17:55:00.289Z,100.00
2023-01-31T17:58:14.177Z,100.00
2023-01-31T18:01:24.791Z,100.00
2023-01-31T18:04:34.334Z,100.00
2023-01-31T18:07:44.352Z,100.00
2023-01-31T18:10:55.505Z,100.00
2023-01-31T18:14:05.509Z,100.00
2023-01-31T18:17:15.159Z,100.00
2023-01-31T18:20:24.922Z,100.00
2023-01-31T18:23:34.453Z,100.00
2023-01-31T18:26:45.762Z,100.00
2023-01-31T18:29:56.201Z,100.00
2023-01-31T18:33:06.111Z,100.00
2023-01-31T18:36:19.165Z,100.00
2023-01-31T18:39:29.030Z,100.00
2023-01-31T18:42:39.882Z,100.00
2023-01-31T18:45:49.568Z,100.00
2023-01-31T18:48:59.209Z,100.00
2023-01-31T18:52:09.508Z,100.00
2023-01-31T18:55:19.616Z,100.00
2023-01-31T18:58:34.943Z,100.00
2023-01-31T19:01:44.533Z,100.00
2023-01-31T19:04:55.087Z,100.00
2023-01-31T19:08:04.763Z,100.00
2023-01-31T19:11:15.949Z,100.00
2023-01-31T19:14:26.717Z,100.00
2023-01-31T19:17:36.693Z,100.00
2023-01-31T19:20:47.782Z,100.00
2023-01-31T19:23:59.201Z,100.00
2023-01-31T19:27:08.724Z,100.00
2023-01-31T19:30:19.925Z,100.00
2023-01-31T19:33:29.489Z,100.00
2023-01-31T19:36:41.430Z,100.00
2023-01-31T19:39:51.040Z,100.00
2023-01-31T19:43:00.791Z,100.00
2023-01-31T19:46:12.795Z,100.00
2023-01-31T19:49:23.021Z,100.00
2023-01-31T19:52:32.886Z,100.00
2023-01-31T19:55:42.493Z,100.00
2023-01-31T19:58:53.298Z,100.00
2023-01-31T20:02:04.271Z,100.00
2023-01-31T20:05:14.741Z,100.00
2023-01-31T20:08:26.304Z,100.00
2023-01-31T20:11:37.229Z,100.00
2023-01-31T20:14:46.874Z,100.00
